Time;durP1;ratioP1;P1;durP2;ratioP2;P2;SDS_P1;SDS_P2;PMS_P1;PMS_P2;Temp;Humidity;BMP_temperature;BMP_pressure;BME280_temperature;BME280_humidity;BME280_pressure;Samples;Min_cycle;Max_cycle;Signal;HPM_P1;HPM_P2
2023/07/08 00:00:23;;;;;;;9.50;6.93;;;;;;;22.55;53.68;97229.97;6014228;23;20007;-80
2023/07/08 00:02:50;;;;;;;8.40;6.18;;;;;;;22.36;53.84;97230.41;6004078;23;20026;-81
2023/07/08 00:05:17;;;;;;;8.77;6.40;;;;;;;22.18;54.92;97225.16;6004288;23;19996;-80
2023/07/08 00:07:44;;;;;;;10.05;7.18;;;;;;;21.92;55.59;97230.56;6014730;23;20011;-81
2023/07/08 00:10:18;;;;;;;9.00;6.55;;;;;;;21.88;57.30;97227.75;5979597;23;20047;-80
2023/07/08 00:12:45;;;;;;;9.38;6.78;;;;;;;21.69;58.05;97232.63;5981317;23;20011;-81
2023/07/08 00:15:11;;;;;;;10.25;6.68;;;;;;;21.53;59.45;97229.69;5979345;23;20349;-81
2023/07/08 00:17:37;;;;;;;9.43;7.00;;;;;;;21.45;59.68;97239.16;6005093;23;20663;-81
2023/07/08 00:20:47;;;;;;;8.77;6.88;;;;;;;21.69;60.51;97235.28;6004820;23;20790;-80
2023/07/08 00:23:13;;;;;;;9.02;6.63;;;;;;;21.52;60.25;97230.78;5980013;23;20018;-80
2023/07/08 00:25:39;;;;;;;9.70;6.45;;;;;;;21.51;60.54;97237.19;6012744;23;20011;-81
2023/07/08 00:28:17;;;;;;;9.80;7.18;;;;;;;21.64;59.82;97232.78;6013773;23;20018;-82
2023/07/08 00:30:42;;;;;;;11.02;7.32;;;;;;;21.43;59.51;97236.06;5958388;23;20077;-80
2023/07/08 00:33:08;;;;;;;8.50;6.35;;;;;;;21.39;60.02;97240.44;5981342;23;20086;-80
2023/07/08 00:35:38;;;;;;;8.85;6.60;;;;;;;21.36;60.07;97230.47;6005114;23;20593;-81
2023/07/08 00:38:27;;;;;;;9.75;6.90;;;;;;;21.34;60.15;97227.34;6014435;23;20000;-81
2023/07/08 00:41:10;;;;;;;11.52;7.22;;;;;;;21.28;61.18;97223.28;5998523;23;20100;-81
2023/07/08 00:43:42;;;;;;;10.70;7.15;;;;;;;21.27;60.68;97225.19;6004327;23;20098;-81
2023/07/08 00:46:17;;;;;;;9.95;6.93;;;;;;;21.24;60.20;97233.75;5980515;23;20166;-81
2023/07/08 00:48:44;;;;;;;9.90;7.35;;;;;;;21.07;61.01;97226.56;5917420;23;20014;-81
2023/07/08 00:51:12;;;;;;;9.18;6.90;;;;;;;21.11;60.69;97229.38;5982294;23;20008;-81
2023/07/08 00:53:39;;;;;;;10.15;7.07;;;;;;;21.05;60.72;97226.13;5982263;23;20027;-81
2023/07/08 00:56:08;;;;;;;8.63;6.00;;;;;;;21.07;60.66;97229.22;6015271;23;20011;-80
2023/07/08 00:58:39;;;;;;;10.02;6.80;;;;;;;21.03;60.98;97230.94;6003953;23;20019;-80
2023/07/08 01:01:06;;;;;;;9.00;6.95;;;;;;;21.01;60.84;97219.88;6012880;23;20007;-81
2023/07/08 01:03:41;;;;;;;10.05;7.38;;;;;;;20.95;60.47;97210.53;6059924;23;20468;-82
2023/07/08 01:06:06;;;;;;;10.13;7.28;;;;;;;20.94;60.54;97215.06;6081346;23;20223;-82
2023/07/08 01:08:32;;;;;;;9.25;6.57;;;;;;;20.92;60.22;97208.50;6054393;23;20148;-83
2023/07/08 01:11:01;;;;;;;11.18;7.72;;;;;;;20.93;60.58;97213.50;6054989;23;20223;-83
2023/07/08 01:13:30;;;;;;;9.70;6.97;;;;;;;21.00;59.53;97202.44;6089725;23;20260;-83
2023/07/08 01:15:55;;;;;;;9.73;6.95;;;;;;;20.98;58.81;97201.22;6075231;23;20175;-83
2023/07/08 01:18:21;;;;;;;9.40;6.70;;;;;;;21.05;59.35;97207.56;6069385;23;20261;-83
2023/07/08 01:20:47;;;;;;;8.50;6.30;;;;;;;21.16;59.41;97209.91;6101146;23;20174;-83
2023/07/08 01:23:13;;;;;;;8.95;6.10;;;;;;;21.17;59.38;97204.31;6065793;23;20147;-83
2023/07/08 01:25:39;;;;;;;9.70;6.25;;;;;;;21.16;58.54;97199.31;6039796;23;20194;-83
2023/07/08 01:28:04;;;;;;;8.13;6.05;;;;;;;21.09;58.45;97189.19;6100662;23;20208;-83
2023/07/08 01:30:30;;;;;;;9.45;6.18;;;;;;;21.09;56.21;97191.84;6100335;23;20206;-80
2023/07/08 01:32:59;;;;;;;8.32;5.57;;;;;;;21.15;56.05;97195.91;6074893;23;20175;-83
2023/07/08 01:35:24;;;;;;;7.63;5.60;;;;;;;21.16;55.62;97188.72;6016109;23;20090;-82
2023/07/08 01:38:01;;;;;;;8.57;6.05;;;;;;;21.36;52.19;97188.09;6063705;23;20258;-83
2023/07/08 01:40:35;;;;;;;7.22;5.45;;;;;;;21.45;50.65;97185.41;6098427;23;20191;-84
2023/07/08 01:43:02;;;;;;;6.55;4.72;;;;;;;21.50;50.79;97172.81;6039386;23;20276;-83
2023/07/08 01:45:34;;;;;;;7.10;5.43;;;;;;;21.71;48.93;97182.72;6097218;23;20254;-84
2023/07/08 01:48:06;;;;;;;7.70;5.63;;;;;;;21.86;48.00;97186.75;6097537;23;20341;-83
2023/07/08 01:50:32;;;;;;;6.85;5.30;;;;;;;21.92;45.91;97179.38;6047729;23;20167;-83
2023/07/08 01:52:59;;;;;;;6.80;4.85;;;;;;;22.04;44.20;97167.03;6062484;23;20329;-83
2023/07/08 01:55:26;;;;;;;8.10;5.47;;;;;;;22.17;43.48;97165.22;6098221;23;20037;-84
2023/07/08 01:57:52;;;;;;;8.75;5.75;;;;;;;22.31;42.41;97166.91;6072631;23;20485;-83
2023/07/08 02:00:19;;;;;;;8.30;5.75;;;;;;;22.40;43.27;97171.06;6074781;23;20191;-83
2023/07/08 02:02:44;;;;;;;8.50;5.75;;;;;;;22.56;42.12;97178.47;6034933;23;20156;-83
2023/07/08 02:05:09;;;;;;;7.55;5.40;;;;;;;22.57;41.89;97170.19;6043535;23;20164;-83
2023/07/08 02:07:35;;;;;;;7.95;5.20;;;;;;;22.70;41.24;97178.22;6020176;23;20235;-83
2023/07/08 02:10:00;;;;;;;7.82;5.20;;;;;;;22.73;41.28;97174.94;6045598;23;20265;-82
2023/07/08 02:12:26;;;;;;;6.03;4.85;;;;;;;22.71;41.74;97171.81;6045840;23;20096;-81
2023/07/08 02:14:51;;;;;;;7.25;5.32;;;;;;;22.70;42.08;97180.88;6046027;23;20244;-81
2023/07/08 02:17:16;;;;;;;6.78;4.72;;;;;;;22.61;43.54;97187.00;6045823;23;20286;-81
2023/07/08 02:19:43;;;;;;;7.05;5.25;;;;;;;22.50;45.66;97183.19;6046106;23;20106;-81
2023/07/08 02:22:09;;;;;;;6.65;5.10;;;;;;;22.39;46.71;97184.66;6011578;23;20362;-81
2023/07/08 02:24:34;;;;;;;9.15;5.35;;;;;;;22.33;47.38;97178.78;6070514;23;20263;-81
2023/07/08 02:26:59;;;;;;;7.00;5.18;;;;;;;22.40;46.25;97186.22;6046217;23;20299;-81
2023/07/08 02:29:26;;;;;;;6.75;5.15;;;;;;;22.41;46.62;97185.91;5987688;23;20155;-81
2023/07/08 02:31:51;;;;;;;7.00;5.03;;;;;;;22.39;48.04;97187.31;6045553;23;20416;-81
2023/07/08 02:34:17;;;;;;;7.20;5.45;;;;;;;22.37;48.05;97197.47;6046479;23;20380;-81
2023/07/08 02:36:43;;;;;;;7.88;4.82;;;;;;;22.38;47.14;97199.81;6035756;23;20261;-81
2023/07/08 02:39:10;;;;;;;8.18;5.55;;;;;;;22.35;47.29;97200.44;6022428;23;20226;-81
2023/07/08 02:41:35;;;;;;;6.68;5.60;;;;;;;22.34;46.08;97204.19;6047216;23;20321;-81
2023/07/08 02:44:01;;;;;;;7.22;5.32;;;;;;;22.36;46.64;97203.88;6045439;23;20495;-80
2023/07/08 02:46:26;;;;;;;7.53;5.15;;;;;;;22.32;45.50;97198.44;6011712;23;20237;-81
2023/07/08 02:48:52;;;;;;;6.60;5.35;;;;;;;22.34;45.44;97214.03;6012260;23;20386;-81
2023/07/08 02:51:17;;;;;;;7.57;5.28;;;;;;;22.26;45.16;97203.13;6045819;23;20270;-81
2023/07/08 02:53:43;;;;;;;7.88;5.28;;;;;;;22.32;44.97;97208.25;6035875;23;20535;-81
2023/07/08 02:56:08;;;;;;;7.07;5.40;;;;;;;22.27;44.75;97209.19;6013639;23;20129;-81
2023/07/08 02:58:34;;;;;;;7.13;5.07;;;;;;;22.26;44.12;97203.13;6035781;23;20163;-81
2023/07/08 03:01:00;;;;;;;6.88;5.35;;;;;;;22.30;44.32;97203.28;5988037;23;20153;-80
2023/07/08 03:03:29;;;;;;;7.53;5.28;;;;;;;22.35;44.41;97210.28;5988108;23;20192;-81
2023/07/08 03:05:58;;;;;;;8.00;5.28;;;;;;;22.36;43.99;97214.47;6036479;23;20278;-81
2023/07/08 03:08:24;;;;;;;6.90;5.25;;;;;;;22.33;44.33;97209.81;6035820;23;20433;-81
2023/07/08 03:11:01;;;;;;;7.40;5.38;;;;;;;22.36;44.79;97206.53;6036495;23;20310;-80
2023/07/08 03:13:27;;;;;;;7.15;5.35;;;;;;;22.32;44.55;97213.56;6045664;23;20453;-81
2023/07/08 03:15:54;;;;;;;6.47;5.00;;;;;;;22.34;44.27;97212.13;6044922;23;20713;-80
2023/07/08 03:18:21;;;;;;;7.15;5.13;;;;;;;22.29;45.22;97217.63;6012317;23;20267;-81
2023/07/08 03:20:48;;;;;;;6.30;4.75;;;;;;;22.26;44.38;97216.38;6022122;23;20129;-81
2023/07/08 03:23:13;;;;;;;6.22;4.38;;;;;;;22.26;43.90;97212.94;6036172;23;20153;-81
2023/07/08 03:25:39;;;;;;;7.03;5.28;;;;;;;22.21;41.52;97205.19;6069188;23;20248;-81
2023/07/08 03:28:07;;;;;;;7.30;5.40;;;;;;;22.24;43.62;97207.97;6021751;23;20259;-80
2023/07/08 03:30:33;;;;;;;7.82;5.35;;;;;;;22.23;42.04;97205.63;6039259;23;20330;-80
2023/07/08 03:32:59;;;;;;;8.02;5.57;;;;;;;22.21;43.63;97205.94;6047244;23;20180;-81
2023/07/08 03:35:25;;;;;;;7.72;5.18;;;;;;;22.26;42.44;97207.66;6039713;23;20153;-81
2023/07/08 03:37:51;;;;;;;7.28;4.95;;;;;;;22.24;43.29;97207.97;6038049;23;20195;-80
2023/07/08 03:40:17;;;;;;;7.72;5.40;;;;;;;22.21;43.72;97200.66;6071968;23;20168;-80
2023/07/08 03:42:42;;;;;;;7.22;5.22;;;;;;;22.28;44.13;97213.44;6011641;23;20208;-80
2023/07/08 03:45:08;;;;;;;7.10;5.03;;;;;;;22.19;45.08;97210.00;6013091;23;20566;-81
2023/07/08 03:47:33;;;;;;;8.20;5.70;;;;;;;22.14;44.80;97221.59;6035927;23;20188;-81
2023/07/08 03:49:59;;;;;;;7.28;5.55;;;;;;;22.04;44.08;97208.69;6046533;23;20145;-81
2023/07/08 03:52:24;;;;;;;9.13;5.35;;;;;;;22.05;43.37;97213.66;6012759;23;20333;-81
2023/07/08 03:54:50;;;;;;;8.45;5.63;;;;;;;22.14;42.89;97216.28;6021325;23;20164;-80
2023/07/08 03:57:15;;;;;;;6.70;5.60;;;;;;;22.19;43.64;97210.81;6022285;23;20072;-81
2023/07/08 03:59:40;;;;;;;8.27;5.82;;;;;;;22.19;45.38;97215.31;6012302;23;20249;-81
2023/07/08 04:02:09;;;;;;;8.40;5.47;;;;;;;22.30;43.03;97216.53;6013531;23;20034;-81
2023/07/08 04:04:35;;;;;;;6.93;5.10;;;;;;;22.24;43.74;97221.22;6037514;23;20236;-81
2023/07/08 04:07:00;;;;;;;8.23;5.88;;;;;;;22.20;44.72;97220.28;6019853;23;20168;-81
2023/07/08 04:09:26;;;;;;;8.07;5.80;;;;;;;22.16;45.84;97221.28;6044358;23;20168;-80
2023/07/08 04:11:51;;;;;;;7.65;5.63;;;;;;;22.13;45.10;97219.25;6021109;23;20185;-80
2023/07/08 04:14:17;;;;;;;6.78;5.30;;;;;;;22.07;46.23;97221.28;6035063;23;20354;-81
2023/07/08 04:16:45;;;;;;;7.38;5.63;;;;;;;22.06;45.70;97225.03;6044037;23;20460;-80
2023/07/08 04:19:14;;;;;;;8.05;6.05;;;;;;;22.01;46.04;97235.81;6043917;23;20184;-80
2023/07/08 04:21:40;;;;;;;8.73;6.00;;;;;;;21.96;45.52;97236.00;6011138;23;20262;-80
2023/07/08 04:24:06;;;;;;;6.97;4.88;;;;;;;21.89;46.08;97231.19;6037338;23;20171;-80
2023/07/08 04:26:35;;;;;;;6.72;5.50;;;;;;;21.84;45.47;97224.16;6037805;23;20269;-81
2023/07/08 04:29:01;;;;;;;8.25;5.57;;;;;;;21.79;44.95;97226.97;6014374;23;20296;-81
2023/07/08 04:31:26;;;;;;;8.50;5.45;;;;;;;21.77;45.93;97221.22;6046492;23;20042;-80
2023/07/08 04:33:52;;;;;;;9.18;5.63;;;;;;;21.78;45.61;97225.44;6037534;23;20270;-81
2023/07/08 04:36:17;;;;;;;6.78;5.13;;;;;;;21.74;45.58;97224.50;6046769;23;20373;-80
2023/07/08 04:38:46;;;;;;;7.63;5.40;;;;;;;21.69;46.50;97227.31;6047445;23;20163;-81
2023/07/08 04:41:11;;;;;;;8.30;5.75;;;;;;;21.70;48.34;97234.19;6043419;23;20077;-80
2023/07/08 04:43:38;;;;;;;6.72;5.90;;;;;;;21.58;48.34;97226.88;6013009;23;20169;-80
2023/07/08 04:46:39;;;;;;;7.55;5.82;;;;;;;21.66;47.24;97235.91;6013822;23;20370;-80
2023/07/08 04:49:09;;;;;;;8.07;5.47;;;;;;;21.56;47.48;97236.22;6037823;23;20188;-81
2023/07/08 04:51:35;;;;;;;8.88;5.63;;;;;;;21.58;47.29;97237.47;6047583;23;20195;-80
2023/07/08 04:54:01;;;;;;;6.20;4.82;;;;;;;21.62;46.43;97242.94;5949471;23;20408;-80
2023/07/08 04:56:36;;;;;;;6.93;5.18;;;;;;;21.79;46.23;97245.53;6037498;23;20270;-80
2023/07/08 04:59:02;;;;;;;6.03;4.70;;;;;;;21.75;45.87;97249.16;6047041;23;20330;-80
2023/07/08 05:01:28;;;;;;;6.03;5.07;;;;;;;21.81;46.12;97246.00;6044986;23;20216;-80
2023/07/08 05:03:53;;;;;;;7.05;5.43;;;;;;;21.80;46.08;97239.16;6037106;23;20342;-81
2023/07/08 05:06:18;;;;;;;6.35;4.78;;;;;;;21.89;46.69;97247.09;6045441;23;20191;-81
2023/07/08 05:08:44;;;;;;;7.45;4.97;;;;;;;21.96;45.93;97251.91;6012079;23;20290;-80
2023/07/08 05:11:09;;;;;;;6.82;5.00;;;;;;;22.03;45.40;97252.94;6022494;23;20384;-81
2023/07/08 05:13:35;;;;;;;6.75;5.40;;;;;;;22.13;45.57;97256.38;6045761;23;20215;-80
2023/07/08 05:16:00;;;;;;;6.70;5.15;;;;;;;22.21;46.48;97261.63;6013630;23;20161;-80
2023/07/08 05:18:26;;;;;;;7.32;4.78;;;;;;;22.23;46.30;97267.41;6012501;23;20167;-80
2023/07/08 05:20:52;;;;;;;6.95;5.63;;;;;;;22.33;48.10;97271.63;6047397;23;20230;-80
2023/07/08 05:23:18;;;;;;;6.63;5.13;;;;;;;22.32;47.31;97263.97;6073786;23;20196;-80
2023/07/08 05:25:43;;;;;;;7.13;5.07;;;;;;;22.35;48.02;97273.94;6037157;23;20541;-80
2023/07/08 05:28:09;;;;;;;7.05;4.57;;;;;;;22.33;48.63;97271.63;6012850;23;20271;-80
2023/07/08 05:30:35;;;;;;;6.53;4.93;;;;;;;22.39;47.56;97274.84;6022865;23;20337;-81
2023/07/08 05:33:00;;;;;;;7.18;5.20;;;;;;;22.42;47.88;97282.97;6069268;23;20074;-80
2023/07/08 05:35:26;;;;;;;6.50;5.15;;;;;;;22.37;46.88;97272.53;6045558;23;20318;-80
2023/07/08 05:37:51;;;;;;;6.65;4.85;;;;;;;22.46;46.38;97283.09;6020484;23;20143;-80
2023/07/08 05:40:17;;;;;;;7.95;5.25;;;;;;;22.46;44.89;97277.78;6012096;23;20041;-81
2023/07/08 05:42:42;;;;;;;6.45;4.75;;;;;;;22.48;45.53;97278.25;6012725;23;20200;-80
2023/07/08 05:45:11;;;;;;;7.43;5.32;;;;;;;22.54;45.67;97274.31;6011080;23;20141;-81
2023/07/08 05:47:37;;;;;;;5.75;4.72;;;;;;;22.66;45.59;97267.56;6034784;23;20431;-80
2023/07/08 05:50:03;;;;;;;5.47;4.97;;;;;;;22.84;45.32;97279.59;6036561;23;20338;-80
2023/07/08 05:52:28;;;;;;;7.18;5.22;;;;;;;23.10;45.07;97291.97;6035158;23;20272;-80
2023/07/08 05:54:55;;;;;;;6.90;5.05;;;;;;;23.21;45.90;97287.84;6035565;23;20162;-80
2023/07/08 05:57:20;;;;;;;7.35;5.65;;;;;;;23.27;46.28;97291.88;6011768;23;20262;-80
2023/07/08 05:59:45;;;;;;;6.38;4.68;;;;;;;23.27;46.64;97289.22;6011213;23;20364;-80
2023/07/08 06:02:12;;;;;;;7.03;5.00;;;;;;;23.25;48.05;97302.03;6040858;23;20409;-80
2023/07/08 06:04:38;;;;;;;6.75;5.75;;;;;;;23.17;50.08;97302.88;6070000;23;20279;-80
2023/07/08 06:07:03;;;;;;;7.97;6.45;;;;;;;23.09;52.94;97293.09;6069777;23;20180;-81
2023/07/08 06:09:29;;;;;;;7.03;5.90;;;;;;;23.17;54.59;97306.31;6011647;23;20157;-79
2023/07/08 06:11:54;;;;;;;8.73;5.90;;;;;;;23.23;50.39;97312.19;6010135;23;20191;-80
2023/07/08 06:14:20;;;;;;;7.88;5.63;;;;;;;23.42;48.69;97324.25;6011324;23;20346;-80
2023/07/08 06:16:45;;;;;;;7.57;5.93;;;;;;;23.66;47.69;97316.38;6044650;23;20299;-80
2023/07/08 06:19:10;;;;;;;7.53;5.63;;;;;;;23.93;47.02;97317.72;6010691;23;20264;-80
2023/07/08 06:21:36;;;;;;;7.00;5.30;;;;;;;24.31;46.84;97307.94;6044955;23;20240;-80
2023/07/08 06:24:02;;;;;;;8.88;5.28;;;;;;;24.64;45.40;97315.88;6044995;23;20325;-80
2023/07/08 06:26:27;;;;;;;6.55;5.00;;;;;;;24.97;44.83;97314.22;6045090;23;20127;-80
2023/07/08 06:28:53;;;;;;;6.70;4.88;;;;;;;25.48;40.92;97325.22;5947673;23;20468;-79
2023/07/08 06:31:18;;;;;;;6.20;4.60;;;;;;;25.92;40.21;97322.56;6043668;23;20220;-79
2023/07/08 06:33:44;;;;;;;7.40;4.72;;;;;;;26.34;38.97;97324.81;6044523;23;20280;-79
2023/07/08 06:36:10;;;;;;;8.02;4.78;;;;;;;26.63;39.19;97306.03;6069064;23;20195;-80
2023/07/08 06:38:35;;;;;;;6.45;4.30;;;;;;;27.07;37.32;97313.88;6011132;23;20394;-81
2023/07/08 06:41:00;;;;;;;5.65;4.72;;;;;;;27.29;37.88;97317.81;6010797;23;20180;-80
2023/07/08 06:43:26;;;;;;;5.72;4.85;;;;;;;27.49;37.63;97312.47;6010659;23;20054;-79
2023/07/08 06:45:51;;;;;;;5.30;4.45;;;;;;;27.75;38.35;97317.19;6010470;23;20165;-80
2023/07/08 06:48:17;;;;;;;5.68;4.30;;;;;;;27.88;37.92;97317.78;6034634;23;20181;-82
2023/07/08 06:50:46;;;;;;;6.70;4.75;;;;;;;27.95;36.87;97312.59;6068597;23;20413;-81
2023/07/08 06:53:11;;;;;;;5.20;4.00;;;;;;;28.30;37.20;97325.06;6010330;23;20275;-80
2023/07/08 06:55:36;;;;;;;6.05;4.50;;;;;;;28.55;35.48;97331.63;6046045;23;20325;-80
2023/07/08 06:58:02;;;;;;;5.50;4.55;;;;;;;28.60;36.40;97332.44;6034433;23;20145;-81
2023/07/08 07:00:27;;;;;;;5.32;4.15;;;;;;;28.76;36.09;97338.44;6011836;23;20287;-81
2023/07/08 07:02:53;;;;;;;7.72;4.10;;;;;;;29.11;35.05;97340.81;6036912;23;20474;-80
2023/07/08 07:05:18;;;;;;;7.30;4.03;;;;;;;29.20;35.76;97339.81;6011711;23;20329;-82
2023/07/08 07:07:48;;;;;;;5.35;4.78;;;;;;;29.32;36.26;97344.97;6043044;23;20015;-81
2023/07/08 07:10:14;;;;;;;4.78;4.20;;;;;;;29.58;34.28;97346.03;6013155;23;20066;-80
2023/07/08 07:12:39;;;;;;;4.93;4.43;;;;;;;29.83;34.72;97357.84;6011548;23;20345;-81
2023/07/08 07:15:05;;;;;;;5.15;3.97;;;;;;;29.77;35.55;97358.56;6020184;23;20187;-81
2023/07/08 07:17:31;;;;;;;5.15;4.32;;;;;;;30.00;33.92;97353.81;6040382;23;20396;-80
2023/07/08 07:19:56;;;;;;;5.80;4.40;;;;;;;30.06;34.45;97359.66;6070151;23;20448;-80
2023/07/08 07:22:24;;;;;;;5.85;4.70;;;;;;;30.10;35.21;97355.06;6011689;23;20298;-80
2023/07/08 07:24:49;;;;;;;6.25;4.43;;;;;;;30.20;34.94;97359.00;6046789;23;20555;-80
2023/07/08 07:27:15;;;;;;;6.90;4.22;;;;;;;30.59;33.70;97358.59;6047012;23;20184;-81
2023/07/08 07:29:42;;;;;;;5.20;4.72;;;;;;;30.45;34.19;97364.59;6010233;23;20698;-81
2023/07/08 07:32:08;;;;;;;6.05;5.45;;;;;;;30.60;33.38;97365.50;6038035;23;20167;-81
2023/07/08 07:34:33;;;;;;;8.48;5.78;;;;;;;30.50;35.34;97372.31;6035526;23;20572;-82
2023/07/08 07:36:58;;;;;;;5.70;5.07;;;;;;;30.34;35.15;97369.88;6010204;23;20163;-80
2023/07/08 07:39:24;;;;;;;5.85;4.70;;;;;;;30.25;34.53;97369.41;6043484;23;20566;-81
2023/07/08 07:41:49;;;;;;;5.07;4.35;;;;;;;30.19;34.94;97368.19;6033559;23;20260;-81
2023/07/08 07:44:15;;;;;;;6.00;4.90;;;;;;;29.92;35.11;97368.31;5985511;23;20136;-81
2023/07/08 07:46:40;;;;;;;5.78;4.88;;;;;;;29.78;35.68;97370.84;6043511;23;20370;-81
2023/07/08 07:49:06;;;;;;;5.28;4.78;;;;;;;29.46;37.08;97373.91;6043913;23;20087;-81
2023/07/08 07:51:31;;;;;;;5.68;4.65;;;;;;;29.55;36.55;97379.75;6010283;23;20302;-81
2023/07/08 07:53:56;;;;;;;5.80;4.88;;;;;;;29.71;35.19;97374.19;6045397;23;20458;-81
2023/07/08 07:56:22;;;;;;;5.45;4.95;;;;;;;29.78;34.99;97370.84;6010835;23;20749;-80
2023/07/08 07:58:48;;;;;;;5.97;4.95;;;;;;;30.02;34.55;97372.25;6023130;23;20349;-81
2023/07/08 08:01:13;;;;;;;5.95;4.55;;;;;;;30.00;34.97;97377.97;6012786;23;20282;-82
2023/07/08 08:03:39;;;;;;;7.55;5.18;;;;;;;30.00;34.67;97377.97;6011865;23;20161;-81
2023/07/08 08:06:04;;;;;;;6.32;4.68;;;;;;;30.00;34.52;97380.66;6013438;23;20247;-82
2023/07/08 08:08:29;;;;;;;5.97;5.15;;;;;;;30.04;34.14;97369.97;6011918;23;20166;-82
2023/07/08 08:10:55;;;;;;;5.28;4.78;;;;;;;30.18;34.66;97372.78;6021930;23;20325;-81
2023/07/08 08:13:20;;;;;;;5.82;5.03;;;;;;;30.26;34.44;97373.63;6012901;23;20186;-82
2023/07/08 08:15:46;;;;;;;6.45;4.88;;;;;;;30.53;33.77;97370.81;6021663;23;20591;-81
2023/07/08 08:18:11;;;;;;;6.07;5.10;;;;;;;30.55;33.45;97368.53;6046839;23;20244;-82
2023/07/08 08:20:36;;;;;;;5.60;4.90;;;;;;;30.69;34.82;97375.94;6012269;23;20285;-84
2023/07/08 08:23:02;;;;;;;5.22;4.72;;;;;;;30.60;34.52;97365.50;6050399;23;20492;-82
2023/07/08 08:25:27;;;;;;;5.57;5.00;;;;;;;30.98;34.09;97379.63;6017113;23;20181;-82
2023/07/08 08:27:53;;;;;;;5.72;4.88;;;;;;;31.05;33.26;97366.25;6044918;23;20471;-82
2023/07/08 08:30:18;;;;;;;6.10;5.50;;;;;;;31.19;34.06;97370.94;6049471;23;20227;-81
2023/07/08 08:32:44;;;;;;;7.47;4.65;;;;;;;31.56;33.33;97380.72;6039815;23;20180;-81
2023/07/08 08:35:09;;;;;;;7.07;5.03;;;;;;;31.76;32.63;97377.75;6013844;23;20320;-81
2023/07/08 08:37:35;;;;;;;7.80;4.78;;;;;;;31.81;32.46;97380.06;6040172;23;20321;-82
2023/07/08 08:40:00;;;;;;;5.38;4.88;;;;;;;31.87;32.47;97368.53;6049312;23;20179;-83
2023/07/08 08:42:31;;;;;;;7.03;5.53;;;;;;;31.91;32.79;97374.72;6013861;23;20270;-82
2023/07/08 08:44:58;;;;;;;5.70;4.88;;;;;;;31.99;32.90;97374.72;6017546;23;20192;-81
2023/07/08 08:47:35;;;;;;;5.78;5.28;;;;;;;32.14;32.15;97380.94;6051532;23;20203;-81
2023/07/08 08:50:12;;;;;;;5.57;5.07;;;;;;;32.33;33.31;97380.56;6051535;23;20176;-82
2023/07/08 08:52:39;;;;;;;5.70;5.10;;;;;;;32.25;31.62;97377.13;6048414;23;20074;-82
2023/07/08 08:55:12;;;;;;;5.57;5.07;;;;;;;32.19;32.81;97380.56;6014804;23;20254;-82
2023/07/08 08:57:49;;;;;;;5.90;4.90;;;;;;;32.33;32.24;97379.81;6071561;23;20569;-82
2023/07/08 09:00:19;;;;;;;7.68;5.38;;;;;;;32.25;32.10;97370.94;6068834;23;20215;-83
2023/07/08 09:02:57;;;;;;;7.53;4.88;;;;;;;32.46;32.75;97381.75;6034823;23;20308;-82
2023/07/08 09:05:23;;;;;;;6.20;4.95;;;;;;;32.61;31.62;97382.56;6010457;23;20207;-81
2023/07/08 09:08:11;;;;;;;7.55;5.18;;;;;;;32.81;31.61;97380.22;6043905;23;20250;-81
2023/07/08 09:10:47;;;;;;;6.00;5.40;;;;;;;32.82;32.23;97381.75;6009985;23;20172;-81
2023/07/08 09:13:33;;;;;;;5.55;4.80;;;;;;;33.28;31.26;97376.69;6044411;23;20224;-81
2023/07/08 09:16:06;;;;;;;5.90;5.28;;;;;;;33.43;30.96;97374.72;6044377;23;20175;-82
2023/07/08 09:18:50;;;;;;;5.33;4.83;;;;;;;33.46;31.09;97369.31;6034699;23;20157;-83
2023/07/08 09:21:21;;;;;;;6.38;5.35;;;;;;;33.82;29.77;97357.59;6033840;23;20591;-80
2023/07/08 09:23:48;;;;;;;5.20;4.80;;;;;;;33.77;30.16;97362.22;6068323;23;20171;-82
2023/07/08 09:26:17;;;;;;;5.75;5.22;;;;;;;33.76;30.07;97374.22;6034097;23;20183;-81
2023/07/08 09:28:44;;;;;;;5.88;4.88;;;;;;;33.78;30.85;97371.88;6044069;23;20365;-80
2023/07/08 09:31:22;;;;;;;5.65;5.15;;;;;;;33.95;29.32;97370.25;6033542;23;20180;-81
2023/07/08 09:33:50;;;;;;;6.03;5.43;;;;;;;33.71;30.07;97360.38;6009940;23;20681;-81
2023/07/08 09:36:21;;;;;;;6.55;5.80;;;;;;;33.89;28.65;97371.81;6034746;23;20063;-81
2023/07/08 09:38:48;;;;;;;6.05;5.20;;;;;;;33.45;30.68;97383.19;6044369;23;20184;-80
2023/07/08 09:41:27;;;;;;;6.30;5.65;;;;;;;33.65;30.62;97368.06;6069705;23;20183;-82
2023/07/08 09:44:03;;;;;;;7.93;5.70;;;;;;;33.93;31.48;97374.50;6068697;23;20171;-81
2023/07/08 09:46:29;;;;;;;5.82;5.32;;;;;;;34.30;30.09;97381.25;6035691;23;20042;-81
2023/07/08 09:48:56;;;;;;;5.63;4.82;;;;;;;34.66;29.12;97373.63;6010498;23;20266;-81
2023/07/08 09:51:25;;;;;;;6.43;5.55;;;;;;;35.01;28.52;97379.91;6034272;23;20092;-82
2023/07/08 09:53:51;;;;;;;6.68;5.32;;;;;;;34.33;28.38;97372.34;6034304;23;20140;-82
2023/07/08 09:56:16;;;;;;;5.38;4.88;;;;;;;34.85;28.38;97380.44;6020446;23;20149;-81
2023/07/08 09:58:44;;;;;;;6.35;5.30;;;;;;;35.26;28.34;97387.03;6010476;23;20303;-82
2023/07/08 10:01:15;;;;;;;6.80;5.80;;;;;;;35.51;27.81;97386.75;6066403;23;20633;-81
2023/07/08 10:03:41;;;;;;;6.90;5.47;;;;;;;35.59;27.85;97390.91;6021383;23;20188;-81
2023/07/08 10:06:17;;;;;;;5.40;5.00;;;;;;;35.64;26.69;97386.97;6033555;23;20168;-81
2023/07/08 10:08:44;;;;;;;6.55;5.95;;;;;;;35.38;27.79;97391.91;6035106;23;20310;-82
2023/07/08 10:11:12;;;;;;;6.90;5.68;;;;;;;35.51;27.57;97397.56;6044217;23;20610;-82
2023/07/08 10:13:41;;;;;;;6.82;6.10;;;;;;;35.03;29.21;97398.47;6011277;23;20301;-82
2023/07/08 10:16:29;;;;;;;5.97;5.35;;;;;;;35.21;28.03;97396.34;5987561;23;20172;-81
2023/07/08 10:18:54;;;;;;;5.68;5.18;;;;;;;35.57;27.50;97387.06;6010211;23;20201;-82
2023/07/08 10:21:38;;;;;;;7.07;5.53;;;;;;;36.00;26.98;97386.50;6043870;23;20398;-82
2023/07/08 10:24:25;;;;;;;6.85;6.22;;;;;;;35.93;27.24;97386.63;6044709;23;20325;-82
2023/07/08 10:26:57;;;;;;;6.82;5.60;;;;;;;35.63;27.84;97380.78;6047557;23;20299;-82
2023/07/08 10:29:51;;;;;;;6.22;5.40;;;;;;;35.56;27.65;97380.88;6071510;23;20330;-81
2023/07/08 10:32:32;;;;;;;6.47;5.85;;;;;;;35.83;27.03;97395.66;6032403;23;20342;-81
2023/07/08 10:35:03;;;;;;;6.65;5.95;;;;;;;35.66;26.79;97391.97;5947318;23;20165;-81
2023/07/08 10:37:53;;;;;;;6.35;5.68;;;;;;;35.95;26.99;97395.88;6010275;23;20404;-81
2023/07/08 10:40:27;;;;;;;6.53;5.68;;;;;;;36.04;26.24;97389.16;6043764;23;20360;-81
2023/07/08 10:43:08;;;;;;;7.85;5.82;;;;;;;35.96;26.35;97383.84;6009967;23;20165;-82
2023/07/08 10:45:49;;;;;;;6.38;5.72;;;;;;;36.07;28.46;97391.06;6020151;23;20227;-82
2023/07/08 10:48:36;;;;;;;5.40;5.00;;;;;;;36.13;27.52;97376.66;6009665;23;20157;-84
2023/07/08 10:51:08;;;;;;;5.97;5.45;;;;;;;36.43;26.70;97377.00;6009926;23;20419;-82
2023/07/08 10:53:46;;;;;;;5.50;5.00;;;;;;;36.45;26.42;97380.84;6045092;23;20311;-82
2023/07/08 10:56:16;;;;;;;5.72;4.65;;;;;;;36.53;25.63;97379.53;6012375;23;20180;-81
2023/07/08 10:59:35;;;;;;;6.68;6.10;;;;;;;36.64;25.84;97384.81;6015264;23;20173;-81
2023/07/08 11:02:13;;;;;;;6.25;5.10;;;;;;;36.73;25.17;97376.91;6033317;23;20092;-81
2023/07/08 11:04:44;;;;;;;5.70;4.82;;;;;;;36.69;25.59;97380.81;6036067;23;20165;-82
2023/07/08 11:07:27;;;;;;;5.88;5.38;;;;;;;36.68;25.01;97368.47;6046024;23;20427;-82
2023/07/08 11:09:56;;;;;;;6.28;5.20;;;;;;;36.41;27.52;97377.41;6036425;23;20176;-81
2023/07/08 11:12:28;;;;;;;5.80;5.30;;;;;;;36.43;27.50;97371.56;6019741;23;20195;-82
2023/07/08 11:15:00;;;;;;;5.53;5.13;;;;;;;36.82;26.17;97376.38;5951087;23;20191;-82
2023/07/08 11:17:36;;;;;;;5.30;4.80;;;;;;;37.28;24.97;97368.59;5946002;23;20553;-83
2023/07/08 11:20:13;;;;;;;5.72;5.15;;;;;;;37.06;26.22;97366.22;6047161;23;20392;-81
2023/07/08 11:22:46;;;;;;;6.45;5.20;;;;;;;37.09;25.12;97368.13;5935233;23;20196;-82
2023/07/08 11:25:19;;;;;;;5.73;5.20;;;;;;;37.04;25.97;97362.41;6033290;23;20100;-82
2023/07/08 11:27:45;;;;;;;5.60;5.05;;;;;;;36.97;26.22;97352.47;6020623;23;20211;-82
2023/07/08 11:30:10;;;;;;;6.47;5.88;;;;;;;37.04;25.87;97359.72;6034705;23;20262;-82
2023/07/08 11:32:37;;;;;;;6.70;5.78;;;;;;;36.74;26.02;97364.09;6043959;23;20175;-81
2023/07/08 11:35:06;;;;;;;6.00;5.15;;;;;;;36.58;26.92;97363.97;6068332;23;20180;-82
2023/07/08 11:37:31;;;;;;;6.72;5.40;;;;;;;36.46;25.99;97349.06;6035140;23;20192;-82
2023/07/08 11:40:07;;;;;;;5.80;5.25;;;;;;;36.83;26.27;97350.03;6033372;23;20183;-82